PWSweather.com
Personal Weather Stations
Station Observations
KTXDECATUR
Wildwood, Decatur, TX 76234

WildwoodDecatur, TX 76234

Lat: 33.2634, Lon: -97.6651

Elevation: 800

Station Type: Davis Vantage Pro 2

http://weather.wildwoodnaturist.com

Latest ConditionsUpdated 6:45:00 PM CDT Thursday, Sep 29, 2016
Currently Today's Max Today's Min Today's Average
Temperature 71.7°F22.1°C 76.5°F24.7°C 53.9°F12.2°C 66.8°F19.3°C
Dew Point 55.2°F12.9°C 61.6°F16.4°C 50.1°F10.1°C 53.8°F12.1°C
Winds 4.6 mph N7.4 kmh N 10.4 mph NNE16.7 kmh NNE - 4.8 mph 7.7 kmh
Wind Gusts 6.9 mph11.1 kmh 16.1 mph25.9 kmh - -
Humidity 56% 88% 46% 65%
Pressure 30.19 in1022.4 mb 30.29 in1025.7 mb 30.07 in1018.3 mb -
Hour Temp Dew Point Humidity Winds Wind Gusts Pressure Precip Precip Rate Daily Precip Total
06:45 PM 71.7°F22.1°C 55.2°F12.9°C 56% 4.6 mph N7.4 kmh N 6.9 mph11.1 kmh 30.19 in1022.4 mb - 0.00 in0.0 mm 0.00 in0.0 mm
06:40 PM 72.0°F22.2°C 54.9°F12.7°C 55% 4.6 mph NNW7.4 kmh NNW 5.8 mph9.3 kmh 30.19 in1022.4 mb - 0.00 in0.0 mm 0.00 in0.0 mm
06:30 PM 72.6°F22.6°C 55.5°F13.1°C 55% 6.9 mph N11.1 kmh N 8.1 mph13.0 kmh 30.19 in1022.4 mb - 0.00 in0.0 mm 0.00 in0.0 mm
06:20 PM 73.1°F22.8°C 55.5°F13.1°C 54% 5.8 mph NNW9.3 kmh NNW 8.1 mph13.0 kmh 30.19 in1022.4 mb - 0.00 in0.0 mm 0.00 in0.0 mm
06:15 PM 73.5°F23.1°C 55.9°F13.3°C 54% 8.1 mph N13.0 kmh N 10.4 mph16.7 kmh 30.18 in1022.0 mb - 0.00 in0.0 mm 0.00 in0.0 mm
06:10 PM 73.5°F23.1°C 55.8°F13.2°C 54% 3.5 mph N5.6 kmh N 6.9 mph11.1 kmh 30.18 in1022.0 mb - 0.00 in0.0 mm 0.00 in0.0 mm
06:00 PM 73.6°F23.1°C 55.4°F13.0°C 53% 5.8 mph NW9.3 kmh NW 6.9 mph11.1 kmh 30.18 in1022.0 mb - 0.00 in0.0 mm 0.00 in0.0 mm
05:50 PM 74.0°F23.3°C 54.8°F12.7°C 51% 6.9 mph NNW11.1 kmh NNW 10.4 mph16.7 kmh 30.18 in1022.0 mb - 0.00 in0.0 mm 0.00 in0.0 mm
05:45 PM 74.6°F23.7°C 55.3°F12.9°C 51% 5.8 mph N9.3 kmh N 8.1 mph13.0 kmh 30.18 in1022.0 mb - 0.00 in0.0 mm 0.00 in0.0 mm
05:40 PM 74.8°F23.8°C 55.5°F13.1°C 51% 4.6 mph NE7.4 kmh NE 8.1 mph13.0 kmh 30.18 in1022.0 mb - 0.00 in0.0 mm 0.00 in0.0 mm
05:30 PM 74.4°F23.6°C 55.6°F13.1°C 52% 6.9 mph NNW11.1 kmh NNW 11.5 mph18.5 kmh 30.18 in1022.0 mb - 0.00 in0.0 mm 0.00 in0.0 mm
05:20 PM 75.0°F23.9°C 55.6°F13.1°C 51% 8.1 mph N13.0 kmh N 11.5 mph18.5 kmh 30.18 in1022.0 mb - 0.00 in0.0 mm 0.00 in0.0 mm
05:15 PM 75.2°F24.0°C 54.7°F12.6°C 49% 3.5 mph NNW5.6 kmh NNW 8.1 mph13.0 kmh 30.18 in1022.0 mb - 0.00 in0.0 mm 0.00 in0.0 mm
05:10 PM 75.3°F24.1°C 54.8°F12.7°C 49% 8.1 mph NNE13.0 kmh NNE 9.2 mph14.8 kmh 30.18 in1022.0 mb - 0.00 in0.0 mm 0.00 in0.0 mm
05:00 PM 75.0°F23.9°C 54.5°F12.5°C 49% 5.8 mph N9.3 kmh N 11.5 mph18.5 kmh 30.18 in1022.0 mb - 0.00 in0.0 mm 0.00 in0.0 mm
04:50 PM 75.4°F24.1°C 53.8°F12.1°C 47% 5.8 mph NNE9.3 kmh NNE 8.1 mph13.0 kmh 30.18 in1022.0 mb - 0.00 in0.0 mm 0.00 in0.0 mm
04:45 PM 75.5°F24.2°C 53.9°F12.2°C 47% 8.1 mph NNE13.0 kmh NNE 12.7 mph20.4 kmh 30.18 in1022.0 mb - 0.00 in0.0 mm 0.00 in0.0 mm
04:40 PM 76.0°F24.4°C 54.3°F12.4°C 47% 6.9 mph N11.1 kmh N 8.1 mph13.0 kmh 30.18 in1022.0 mb - 0.00 in0.0 mm 0.00 in0.0 mm
04:30 PM 75.6°F24.2°C 54.0°F12.2°C 47% 4.6 mph N7.4 kmh N 8.1 mph13.0 kmh 30.18 in1022.0 mb - 0.00 in0.0 mm 0.00 in0.0 mm
04:20 PM 76.3°F24.6°C 55.1°F12.8°C 48% 5.8 mph NNE9.3 kmh NNE 11.5 mph18.5 kmh 30.18 in1022.0 mb - 0.00 in0.0 mm 0.00 in0.0 mm
04:15 PM 76.5°F24.7°C 56.5°F13.6°C 50% 6.9 mph N11.1 kmh N 8.1 mph13.0 kmh 30.18 in1022.0 mb - 0.00 in0.0 mm 0.00 in0.0 mm
04:10 PM 75.3°F24.1°C 57.0°F13.9°C 53% 4.6 mph N7.4 kmh N 11.5 mph18.5 kmh 30.18 in1022.0 mb - 0.00 in0.0 mm 0.00 in0.0 mm
04:00 PM 75.6°F24.2°C 56.7°F13.7°C 52% 4.6 mph NNE7.4 kmh NNE 10.4 mph16.7 kmh 30.19 in1022.4 mb - 0.00 in0.0 mm 0.00 in0.0 mm
03:50 PM 75.0°F23.9°C 54.5°F12.5°C 49% 5.8 mph NNE9.3 kmh NNE 11.5 mph18.5 kmh 30.19 in1022.4 mb - 0.00 in0.0 mm 0.00 in0.0 mm
03:45 PM 74.8°F23.8°C 54.9°F12.7°C 50% 9.2 mph NE14.8 kmh NE 10.4 mph16.7 kmh 30.19 in1022.4 mb - 0.00 in0.0 mm 0.00 in0.0 mm
03:40 PM 74.6°F23.7°C 54.2°F12.3°C 49% 3.5 mph NE5.6 kmh NE 10.4 mph16.7 kmh 30.19 in1022.4 mb - 0.00 in0.0 mm 0.00 in0.0 mm
03:30 PM 75.2°F24.0°C 55.3°F12.9°C 50% 8.1 mph NNW13.0 kmh NNW 10.4 mph16.7 kmh 30.20 in1022.7 mb - 0.00 in0.0 mm 0.00 in0.0 mm
03:20 PM 75.1°F23.9°C 54.1°F12.3°C 48% 4.6 mph N7.4 kmh N 8.1 mph13.0 kmh 30.20 in1022.7 mb - 0.00 in0.0 mm 0.00 in0.0 mm
03:15 PM 75.4°F24.1°C 54.4°F12.4°C 48% 10.4 mph NNE16.7 kmh NNE 12.7 mph20.4 kmh 30.20 in1022.7 mb - 0.00 in0.0 mm 0.00 in0.0 mm
03:10 PM 75.3°F24.1°C 54.3°F12.4°C 48% 5.8 mph NNE9.3 kmh NNE 6.9 mph11.1 kmh 30.20 in1022.7 mb - 0.00 in0.0 mm 0.00 in0.0 mm
03:00 PM 74.8°F23.8°C 54.9°F12.7°C 50% 4.6 mph N7.4 kmh N 8.1 mph13.0 kmh 30.21 in1023.0 mb - 0.00 in0.0 mm 0.00 in0.0 mm
02:50 PM 74.1°F23.4°C 52.0°F11.1°C 46% 6.9 mph NW11.1 kmh NW 11.5 mph18.5 kmh 30.21 in1023.0 mb - 0.00 in0.0 mm 0.00 in0.0 mm
02:45 PM 74.6°F23.7°C 54.7°F12.6°C 50% 8.1 mph NE13.0 kmh NE 9.2 mph14.8 kmh 30.21 in1023.0 mb - 0.00 in0.0 mm 0.00 in0.0 mm
02:40 PM 74.4°F23.6°C 54.5°F12.5°C 50% 2.3 mph NNE3.7 kmh NNE 8.1 mph13.0 kmh 30.21 in1023.0 mb - 0.00 in0.0 mm 0.00 in0.0 mm
02:30 PM 74.5°F23.6°C 53.6°F12.0°C 48% 6.9 mph NE11.1 kmh NE 8.1 mph13.0 kmh 30.21 in1023.0 mb - 0.00 in0.0 mm 0.00 in0.0 mm
02:20 PM 74.2°F23.4°C 53.8°F12.1°C 49% 6.9 mph NE11.1 kmh NE 8.1 mph13.0 kmh 30.22 in1023.4 mb - 0.00 in0.0 mm 0.00 in0.0 mm
02:15 PM 74.1°F23.4°C 54.8°F12.7°C 51% 3.5 mph ENE5.6 kmh ENE 5.8 mph9.3 kmh 30.23 in1023.7 mb - 0.00 in0.0 mm 0.00 in0.0 mm
02:10 PM 73.6°F23.1°C 54.3°F12.4°C 51% 1.2 mph NE1.9 kmh NE 2.3 mph3.7 kmh 30.23 in1023.7 mb - 0.00 in0.0 mm 0.00 in0.0 mm
02:00 PM 73.8°F23.2°C 54.0°F12.2°C 50% 9.2 mph N14.8 kmh N 13.8 mph22.2 kmh 30.23 in1023.7 mb - 0.00 in0.0 mm 0.00 in0.0 mm
01:50 PM 73.7°F23.2°C 52.8°F11.6°C 48% 9.2 mph N14.8 kmh N 11.5 mph18.5 kmh 30.24 in1024.0 mb - 0.00 in0.0 mm 0.00 in0.0 mm
01:45 PM 74.1°F23.4°C 53.7°F12.1°C 49% 6.9 mph N11.1 kmh N 10.4 mph16.7 kmh 30.24 in1024.0 mb - 0.00 in0.0 mm 0.00 in0.0 mm
01:40 PM 74.0°F23.3°C 53.1°F11.7°C 48% 4.6 mph NE7.4 kmh NE 12.7 mph20.4 kmh 30.24 in1024.0 mb - 0.00 in0.0 mm 0.00 in0.0 mm
01:30 PM 73.2°F22.9°C 54.6°F12.6°C 52% 6.9 mph NNE11.1 kmh NNE 12.7 mph20.4 kmh 30.25 in1024.4 mb - 0.00 in0.0 mm 0.00 in0.0 mm
01:20 PM 73.3°F22.9°C 52.9°F11.6°C 49% 4.6 mph NE7.4 kmh NE 9.2 mph14.8 kmh 30.25 in1024.4 mb - 0.00 in0.0 mm 0.00 in0.0 mm
01:15 PM 73.5°F23.1°C 54.8°F12.7°C 52% 5.8 mph ENE9.3 kmh ENE 8.1 mph13.0 kmh 30.25 in1024.4 mb - 0.00 in0.0 mm 0.00 in0.0 mm
01:10 PM 72.4°F22.4°C 53.8°F12.1°C 52% 1.2 mph NE1.9 kmh NE 6.9 mph11.1 kmh 30.25 in1024.4 mb - 0.00 in0.0 mm 0.00 in0.0 mm
01:00 PM 72.6°F22.6°C 54.0°F12.2°C 52% 5.8 mph N9.3 kmh N 9.2 mph14.8 kmh 30.25 in1024.4 mb - 0.00 in0.0 mm 0.00 in0.0 mm
12:50 PM 72.2°F22.3°C 54.1°F12.3°C 53% 8.1 mph N13.0 kmh N 8.1 mph13.0 kmh 30.26 in1024.7 mb - 0.00 in0.0 mm 0.00 in0.0 mm
12:45 PM 72.2°F22.3°C 55.7°F13.2°C 56% 4.6 mph NNE7.4 kmh NNE 11.5 mph18.5 kmh 30.26 in1024.7 mb - 0.00 in0.0 mm 0.00 in0.0 mm
12:40 PM 72.3°F22.4°C 53.7°F12.1°C 52% 2.3 mph NE3.7 kmh NE 5.8 mph9.3 kmh 30.26 in1024.7 mb - 0.00 in0.0 mm 0.00 in0.0 mm
12:30 PM 71.2°F21.8°C 53.2°F11.8°C 53% 3.5 mph ENE5.6 kmh ENE 8.1 mph13.0 kmh 30.27 in1025.1 mb - 0.00 in0.0 mm 0.00 in0.0 mm
12:20 PM 71.2°F21.8°C 53.7°F12.1°C 54% 5.8 mph NE9.3 kmh NE 8.1 mph13.0 kmh 30.27 in1025.1 mb - 0.00 in0.0 mm 0.00 in0.0 mm
12:15 PM 71.1°F21.7°C 54.6°F12.6°C 56% 9.2 mph NNE14.8 kmh NNE 15.0 mph24.1 kmh 30.27 in1025.1 mb - 0.00 in0.0 mm 0.00 in0.0 mm
12:10 PM 70.7°F21.5°C 54.7°F12.6°C 57% 5.8 mph NNE9.3 kmh NNE 12.7 mph20.4 kmh 30.27 in1025.1 mb - 0.00 in0.0 mm 0.00 in0.0 mm
12:00 PM 70.3°F21.3°C 54.8°F12.7°C 58% 6.9 mph NE11.1 kmh NE 10.4 mph16.7 kmh 30.27 in1025.1 mb - 0.00 in0.0 mm 0.00 in0.0 mm
11:50 AM 70.3°F21.3°C 56.2°F13.4°C 61% 3.5 mph NE5.6 kmh NE 6.9 mph11.1 kmh 30.28 in1025.4 mb - 0.00 in0.0 mm 0.00 in0.0 mm
11:45 AM 69.5°F20.8°C 54.1°F12.3°C 58% 6.9 mph NE11.1 kmh NE 9.2 mph14.8 kmh 30.28 in1025.4 mb - 0.00 in0.0 mm 0.00 in0.0 mm
11:40 AM 69.4°F20.8°C 54.4°F12.4°C 59% 4.6 mph N7.4 kmh N 9.2 mph14.8 kmh 30.28 in1025.4 mb - 0.00 in0.0 mm 0.00 in0.0 mm
11:30 AM 68.7°F20.4°C 54.7°F12.6°C 61% 9.2 mph NE14.8 kmh NE 9.2 mph14.8 kmh 30.28 in1025.4 mb - 0.00 in0.0 mm 0.00 in0.0 mm
11:20 AM 69.2°F20.7°C 55.2°F12.9°C 61% 5.8 mph NNE9.3 kmh NNE 9.2 mph14.8 kmh 30.28 in1025.4 mb - 0.00 in0.0 mm 0.00 in0.0 mm
11:15 AM 68.9°F20.5°C 55.3°F12.9°C 62% 5.8 mph NE9.3 kmh NE 8.1 mph13.0 kmh 30.28 in1025.4 mb - 0.00 in0.0 mm 0.00 in0.0 mm
11:10 AM 68.5°F20.3°C 55.8°F13.2°C 64% 9.2 mph N14.8 kmh N 12.7 mph20.4 kmh 30.29 in1025.7 mb - 0.00 in0.0 mm 0.00 in0.0 mm
11:00 AM 68.1°F20.1°C 55.4°F13.0°C 64% 8.1 mph NE13.0 kmh NE 9.2 mph14.8 kmh 30.28 in1025.4 mb - 0.00 in0.0 mm 0.00 in0.0 mm
10:50 AM 67.6°F19.8°C 54.1°F12.3°C 62% 6.9 mph NE11.1 kmh NE 9.2 mph14.8 kmh 30.28 in1025.4 mb - 0.00 in0.0 mm 0.00 in0.0 mm
10:45 AM 67.6°F19.8°C 54.6°F12.6°C 63% 8.1 mph NE13.0 kmh NE 12.7 mph20.4 kmh 30.28 in1025.4 mb - 0.00 in0.0 mm 0.00 in0.0 mm
10:40 AM 67.1°F19.5°C 54.5°F12.5°C 64% 6.9 mph NE11.1 kmh NE 9.2 mph14.8 kmh 30.28 in1025.4 mb - 0.00 in0.0 mm 0.00 in0.0 mm
10:30 AM 66.7°F19.3°C 54.5°F12.5°C 65% 3.5 mph NE5.6 kmh NE 4.6 mph7.4 kmh 30.28 in1025.4 mb - 0.00 in0.0 mm 0.00 in0.0 mm
10:20 AM 65.9°F18.8°C 55.1°F12.8°C 68% 8.1 mph N13.0 kmh N 11.5 mph18.5 kmh 30.28 in1025.4 mb - 0.00 in0.0 mm 0.00 in0.0 mm
10:15 AM 65.5°F18.6°C 54.6°F12.6°C 68% 3.5 mph NE5.6 kmh NE 11.5 mph18.5 kmh 30.28 in1025.4 mb - 0.00 in0.0 mm 0.00 in0.0 mm
10:10 AM 65.2°F18.4°C 54.8°F12.7°C 69% 9.2 mph NE14.8 kmh NE 12.7 mph20.4 kmh 30.28 in1025.4 mb - 0.00 in0.0 mm 0.00 in0.0 mm
10:00 AM 64.4°F18.0°C 54.4°F12.4°C 70% 4.6 mph NE7.4 kmh NE 8.1 mph13.0 kmh 30.27 in1025.1 mb - 0.00 in0.0 mm 0.00 in0.0 mm
09:50 AM 63.6°F17.6°C 54.8°F12.7°C 73% 6.9 mph NNE11.1 kmh NNE 12.7 mph20.4 kmh 30.27 in1025.1 mb - 0.00 in0.0 mm 0.00 in0.0 mm
09:45 AM 63.1°F17.3°C 54.0°F12.2°C 72% 5.8 mph NE9.3 kmh NE 11.5 mph18.5 kmh 30.27 in1025.1 mb - 0.00 in0.0 mm 0.00 in0.0 mm
09:40 AM 62.8°F17.1°C 54.1°F12.3°C 73% 6.9 mph NNE11.1 kmh NNE 11.5 mph18.5 kmh 30.27 in1025.1 mb - 0.00 in0.0 mm 0.00 in0.0 mm
09:30 AM 62.1°F16.7°C 54.1°F12.3°C 75% 9.2 mph NNE14.8 kmh NNE 13.8 mph22.2 kmh 30.27 in1025.1 mb - 0.00 in0.0 mm 0.00 in0.0 mm
09:20 AM 61.2°F16.2°C 53.6°F12.0°C 76% 6.9 mph NE11.1 kmh NE 9.2 mph14.8 kmh 30.27 in1025.1 mb - 0.00 in0.0 mm 0.00 in0.0 mm
09:15 AM 60.9°F16.1°C 53.6°F12.0°C 77% 5.8 mph NNE9.3 kmh NNE 8.1 mph13.0 kmh 30.26 in1024.7 mb - 0.00 in0.0 mm 0.00 in0.0 mm
09:10 AM 60.5°F15.8°C 53.3°F11.8°C 77% 4.6 mph NNE7.4 kmh NNE 13.8 mph22.2 kmh 30.26 in1024.7 mb - 0.00 in0.0 mm 0.00 in0.0 mm
09:00 AM 59.7°F15.4°C 53.5°F11.9°C 80% 9.2 mph NNE14.8 kmh NNE 11.5 mph18.5 kmh 30.25 in1024.4 mb - 0.00 in0.0 mm 0.00 in0.0 mm
08:50 AM 58.3°F14.6°C 53.5°F11.9°C 84% 3.5 mph NNE5.6 kmh NNE 6.9 mph11.1 kmh 30.25 in1024.4 mb - 0.00 in0.0 mm 0.00 in0.0 mm
08:45 AM 57.6°F14.2°C 52.8°F11.6°C 84% 2.3 mph NNE3.7 kmh NNE 6.9 mph11.1 kmh 30.25 in1024.4 mb - 0.00 in0.0 mm 0.00 in0.0 mm
08:40 AM 57.1°F13.9°C 52.6°F11.4°C 85% 2.3 mph NNE3.7 kmh NNE 3.5 mph5.6 kmh 30.24 in1024.0 mb - 0.00 in0.0 mm 0.00 in0.0 mm
08:30 AM 56.2°F13.4°C 52.4°F11.3°C 87% 4.6 mph N7.4 kmh N 8.1 mph13.0 kmh 30.24 in1024.0 mb - 0.00 in0.0 mm 0.00 in0.0 mm
08:20 AM 55.1°F12.8°C 51.6°F10.9°C 88% 4.6 mph N7.4 kmh N 6.9 mph11.1 kmh 30.24 in1024.0 mb - 0.00 in0.0 mm 0.00 in0.0 mm
08:15 AM 54.6°F12.6°C 51.1°F10.6°C 88% 3.5 mph N5.6 kmh N 5.8 mph9.3 kmh 30.24 in1024.0 mb - 0.00 in0.0 mm 0.00 in0.0 mm
08:10 AM 54.2°F12.3°C 50.7°F10.4°C 88% 3.5 mph N5.6 kmh N 6.9 mph11.1 kmh 30.24 in1024.0 mb - 0.00 in0.0 mm 0.00 in0.0 mm
08:00 AM 53.9°F12.2°C 50.4°F10.2°C 88% 2.3 mph N3.7 kmh N 3.5 mph5.6 kmh 30.23 in1023.7 mb - 0.00 in0.0 mm 0.00 in0.0 mm
07:50 AM 53.9°F12.2°C 50.4°F10.2°C 88% 3.5 mph N5.6 kmh N 4.6 mph7.4 kmh 30.23 in1023.7 mb - 0.00 in0.0 mm 0.00 in0.0 mm
07:45 AM 53.9°F12.2°C 50.1°F10.1°C 87% Calm Calm 3.5 mph5.6 kmh 30.23 in1023.7 mb - 0.00 in0.0 mm 0.00 in0.0 mm
07:40 AM 53.9°F12.2°C 50.1°F10.1°C 87% 1.2 mph N1.9 kmh N 3.5 mph5.6 kmh 30.23 in1023.7 mb - 0.00 in0.0 mm 0.00 in0.0 mm
07:30 AM 54.2°F12.3°C 50.4°F10.2°C 87% 2.3 mph N3.7 kmh N 5.8 mph9.3 kmh 30.22 in1023.4 mb - 0.00 in0.0 mm 0.00 in0.0 mm
07:20 AM 54.4°F12.4°C 50.6°F10.3°C 87% 1.2 mph N1.9 kmh N 3.5 mph5.6 kmh 30.22 in1023.4 mb - 0.00 in0.0 mm 0.00 in0.0 mm
07:15 AM 54.6°F12.6°C 50.8°F10.4°C 87% 1.2 mph N1.9 kmh N 4.6 mph7.4 kmh 30.22 in1023.4 mb - 0.00 in0.0 mm 0.00 in0.0 mm
07:10 AM 54.7°F12.6°C 50.6°F10.3°C 86% 2.3 mph N3.7 kmh N 2.3 mph3.7 kmh 30.21 in1023.0 mb - 0.00 in0.0 mm 0.00 in0.0 mm
07:00 AM 54.9°F12.7°C 50.8°F10.4°C 86% 3.5 mph N5.6 kmh N 4.6 mph7.4 kmh 30.20 in1022.7 mb - 0.00 in0.0 mm 0.00 in0.0 mm
06:50 AM 55.2°F12.9°C 50.8°F10.4°C 85% 3.5 mph N5.6 kmh N 4.6 mph7.4 kmh 30.20 in1022.7 mb - 0.00 in0.0 mm 0.00 in0.0 mm
06:45 AM 55.5°F13.1°C 50.7°F10.4°C 84% 2.3 mph N3.7 kmh N 3.5 mph5.6 kmh 30.20 in1022.7 mb - 0.00 in0.0 mm 0.00 in0.0 mm
06:40 AM 55.7°F13.2°C 51.0°F10.6°C 84% 1.2 mph N1.9 kmh N 3.5 mph5.6 kmh 30.20 in1022.7 mb - 0.00 in0.0 mm 0.00 in0.0 mm
06:30 AM 56.3°F13.5°C 51.2°F10.7°C 83% 2.3 mph N3.7 kmh N 2.3 mph3.7 kmh 30.20 in1022.7 mb - 0.00 in0.0 mm 0.00 in0.0 mm
06:20 AM 56.9°F13.8°C 51.2°F10.7°C 81% 3.5 mph N5.6 kmh N 4.6 mph7.4 kmh 30.19 in1022.4 mb - 0.00 in0.0 mm 0.00 in0.0 mm
06:15 AM 57.3°F14.1°C 51.1°F10.6°C 80% 2.3 mph N3.7 kmh N 2.3 mph3.7 kmh 30.19 in1022.4 mb - 0.00 in0.0 mm 0.00 in0.0 mm
06:10 AM 57.6°F14.2°C 51.4°F10.8°C 80% 1.2 mph N1.9 kmh N 3.5 mph5.6 kmh 30.19 in1022.4 mb - 0.00 in0.0 mm 0.00 in0.0 mm
06:00 AM 58.2°F14.6°C 51.3°F10.7°C 78% 1.2 mph N1.9 kmh N 2.3 mph3.7 kmh 30.18 in1022.0 mb - 0.00 in0.0 mm 0.00 in0.0 mm
05:50 AM 58.8°F14.9°C 51.6°F10.9°C 77% 1.2 mph N1.9 kmh N 2.3 mph3.7 kmh 30.18 in1022.0 mb - 0.00 in0.0 mm 0.00 in0.0 mm
05:45 AM 59.0°F15.0°C 51.4°F10.8°C 76% Calm Calm 2.3 mph3.7 kmh 30.17 in1021.7 mb - 0.00 in0.0 mm 0.00 in0.0 mm
05:40 AM 59.0°F15.0°C 51.1°F10.6°C 75% Calm Calm -- 30.17 in1021.7 mb - 0.00 in0.0 mm 0.00 in0.0 mm
05:30 AM 59.4°F15.2°C 51.5°F10.8°C 75% Calm Calm 2.3 mph3.7 kmh 30.17 in1021.7 mb - 0.00 in0.0 mm 0.00 in0.0 mm
05:20 AM 59.9°F15.5°C 51.6°F10.9°C 74% Calm Calm -- 30.17 in1021.7 mb - 0.00 in0.0 mm 0.00 in0.0 mm
05:15 AM 60.1°F15.6°C 51.4°F10.8°C 73% Calm Calm -- 30.16 in1021.3 mb - 0.00 in0.0 mm 0.00 in0.0 mm
05:10 AM 60.4°F15.8°C 51.7°F10.9°C 73% 2.3 mph N3.7 kmh N 3.5 mph5.6 kmh 30.16 in1021.3 mb - 0.00 in0.0 mm 0.00 in0.0 mm
05:00 AM 61.0°F16.1°C 51.9°F11.1°C 72% 2.3 mph N3.7 kmh N 3.5 mph5.6 kmh 30.16 in1021.3 mb - 0.00 in0.0 mm 0.00 in0.0 mm
04:50 AM 61.5°F16.4°C 51.6°F10.9°C 70% Calm Calm -- 30.15 in1021.0 mb - 0.00 in0.0 mm 0.00 in0.0 mm
04:45 AM 61.7°F16.5°C 51.8°F11.0°C 70% Calm Calm 4.6 mph7.4 kmh 30.15 in1021.0 mb - 0.00 in0.0 mm 0.00 in0.0 mm
04:40 AM 61.8°F16.6°C 51.9°F11.1°C 70% 1.2 mph NNE1.9 kmh NNE 1.2 mph1.9 kmh 30.15 in1021.0 mb - 0.00 in0.0 mm 0.00 in0.0 mm
04:30 AM 62.1°F16.7°C 51.8°F11.0°C 69% 1.2 mph NNE1.9 kmh NNE 2.3 mph3.7 kmh 30.14 in1020.7 mb - 0.00 in0.0 mm 0.00 in0.0 mm
04:20 AM 62.5°F16.9°C 51.8°F11.0°C 68% 2.3 mph NE3.7 kmh NE 3.5 mph5.6 kmh 30.14 in1020.7 mb - 0.00 in0.0 mm 0.00 in0.0 mm
04:15 AM 62.7°F17.1°C 52.0°F11.1°C 68% 2.3 mph NE3.7 kmh NE 3.5 mph5.6 kmh 30.14 in1020.7 mb - 0.00 in0.0 mm 0.00 in0.0 mm
04:10 AM 62.9°F17.2°C 52.2°F11.2°C 68% 4.6 mph NNE7.4 kmh NNE 10.4 mph16.7 kmh 30.14 in1020.7 mb - 0.00 in0.0 mm 0.00 in0.0 mm
04:00 AM 63.4°F17.4°C 51.8°F11.0°C 66% 4.6 mph NE7.4 kmh NE 6.9 mph11.1 kmh 30.14 in1020.7 mb - 0.00 in0.0 mm 0.00 in0.0 mm
03:50 AM 63.6°F17.6°C 52.0°F11.1°C 66% 2.3 mph NE3.7 kmh NE 4.6 mph7.4 kmh 30.13 in1020.3 mb - 0.00 in0.0 mm 0.00 in0.0 mm
03:45 AM 63.8°F17.7°C 52.2°F11.2°C 66% 2.3 mph NE3.7 kmh NE 3.5 mph5.6 kmh 30.13 in1020.3 mb - 0.00 in0.0 mm 0.00 in0.0 mm
03:40 AM 63.9°F17.7°C 52.3°F11.3°C 66% 4.6 mph NE7.4 kmh NE 5.8 mph9.3 kmh 30.13 in1020.3 mb - 0.00 in0.0 mm 0.00 in0.0 mm
03:30 AM 64.3°F17.9°C 52.3°F11.3°C 65% 4.6 mph NNE7.4 kmh NNE 8.1 mph13.0 kmh 30.13 in1020.3 mb - 0.00 in0.0 mm 0.00 in0.0 mm
03:20 AM 64.9°F18.3°C 52.0°F11.1°C 63% 5.8 mph NE9.3 kmh NE 9.2 mph14.8 kmh 30.12 in1020.0 mb - 0.00 in0.0 mm 0.00 in0.0 mm
03:15 AM 65.2°F18.4°C 52.3°F11.3°C 63% 8.1 mph NNE13.0 kmh NNE 10.4 mph16.7 kmh 30.13 in1020.3 mb - 0.00 in0.0 mm 0.00 in0.0 mm
03:10 AM 65.4°F18.6°C 52.5°F11.4°C 63% 4.6 mph NE7.4 kmh NE 9.2 mph14.8 kmh 30.12 in1020.0 mb - 0.00 in0.0 mm 0.00 in0.0 mm
03:00 AM 65.6°F18.7°C 52.6°F11.4°C 63% 5.8 mph NE9.3 kmh NE 8.1 mph13.0 kmh 30.12 in1020.0 mb - 0.00 in0.0 mm 0.00 in0.0 mm
02:50 AM 66.0°F18.9°C 52.6°F11.4°C 62% 5.8 mph NNE9.3 kmh NNE 9.2 mph14.8 kmh 30.12 in1020.0 mb - 0.00 in0.0 mm 0.00 in0.0 mm
02:45 AM 66.2°F19.0°C 52.8°F11.6°C 62% 3.5 mph NE5.6 kmh NE 5.8 mph9.3 kmh 30.12 in1020.0 mb - 0.00 in0.0 mm 0.00 in0.0 mm
02:40 AM 66.5°F19.2°C 52.6°F11.4°C 61% 2.3 mph ENE3.7 kmh ENE 6.9 mph11.1 kmh 30.12 in1020.0 mb - 0.00 in0.0 mm 0.00 in0.0 mm
02:30 AM 66.8°F19.3°C 52.9°F11.6°C 61% 3.5 mph NE5.6 kmh NE 4.6 mph7.4 kmh 30.11 in1019.6 mb - 0.00 in0.0 mm 0.00 in0.0 mm
02:20 AM 67.2°F19.6°C 52.8°F11.6°C 60% 8.1 mph NE13.0 kmh NE 9.2 mph14.8 kmh 30.11 in1019.6 mb - 0.00 in0.0 mm 0.00 in0.0 mm
02:15 AM 67.5°F19.7°C 53.1°F11.7°C 60% 6.9 mph NE11.1 kmh NE 10.4 mph16.7 kmh 30.10 in1019.3 mb - 0.00 in0.0 mm 0.00 in0.0 mm
02:10 AM 67.7°F19.8°C 53.3°F11.8°C 60% 5.8 mph NE9.3 kmh NE 8.1 mph13.0 kmh 30.10 in1019.3 mb - 0.00 in0.0 mm 0.00 in0.0 mm
02:00 AM 67.9°F19.9°C 53.1°F11.7°C 59% 6.9 mph NE11.1 kmh NE 13.8 mph22.2 kmh 30.10 in1019.3 mb - 0.00 in0.0 mm 0.00 in0.0 mm
01:50 AM 68.2°F20.1°C 53.3°F11.8°C 59% 5.8 mph NE9.3 kmh NE 16.1 mph25.9 kmh 30.10 in1019.3 mb - 0.00 in0.0 mm 0.00 in0.0 mm
01:45 AM 68.4°F20.2°C 53.5°F11.9°C 59% 6.9 mph NE11.1 kmh NE 10.4 mph16.7 kmh 30.09 in1019.0 mb - 0.00 in0.0 mm 0.00 in0.0 mm
01:40 AM 68.5°F20.3°C 54.1°F12.3°C 60% 5.8 mph NE9.3 kmh NE 10.4 mph16.7 kmh 30.09 in1019.0 mb - 0.00 in0.0 mm 0.00 in0.0 mm
01:30 AM 68.7°F20.4°C 54.7°F12.6°C 61% 6.9 mph NE11.1 kmh NE 11.5 mph18.5 kmh 30.09 in1019.0 mb - 0.00 in0.0 mm 0.00 in0.0 mm
01:20 AM 68.9°F20.5°C 55.3°F12.9°C 62% 5.8 mph NE9.3 kmh NE 6.9 mph11.1 kmh 30.09 in1019.0 mb - 0.00 in0.0 mm 0.00 in0.0 mm
01:15 AM 69.0°F20.6°C 55.5°F13.1°C 62% 3.5 mph NE5.6 kmh NE 8.1 mph13.0 kmh 30.09 in1019.0 mb - 0.00 in0.0 mm 0.00 in0.0 mm
01:10 AM 69.0°F20.6°C 55.9°F13.3°C 63% 5.8 mph NE9.3 kmh NE 10.4 mph16.7 kmh 30.09 in1019.0 mb - 0.00 in0.0 mm 0.00 in0.0 mm
01:00 AM 68.8°F20.4°C 56.6°F13.7°C 65% 4.6 mph NE7.4 kmh NE 5.8 mph9.3 kmh 30.09 in1019.0 mb - 0.00 in0.0 mm 0.00 in0.0 mm
12:50 AM 68.2°F20.1°C 57.6°F14.2°C 69% 6.9 mph NE11.1 kmh NE 6.9 mph11.1 kmh 30.09 in1019.0 mb - 0.00 in0.0 mm 0.00 in0.0 mm
12:45 AM 67.7°F19.8°C 58.3°F14.6°C 72% 6.9 mph NE11.1 kmh NE 6.9 mph11.1 kmh 30.08 in1018.6 mb - 0.00 in0.0 mm 0.00 in0.0 mm
12:40 AM 67.0°F19.4°C 59.2°F15.1°C 76% 5.8 mph NE9.3 kmh NE 8.1 mph13.0 kmh 30.09 in1019.0 mb - 0.00 in0.0 mm 0.00 in0.0 mm
12:30 AM 65.3°F18.5°C 60.3°F15.7°C 84% 4.6 mph NE7.4 kmh NE 6.9 mph11.1 kmh 30.08 in1018.6 mb - 0.00 in0.0 mm 0.00 in0.0 mm
12:20 AM 65.0°F18.3°C 61.4°F16.3°C 88% 1.2 mph N1.9 kmh N 3.5 mph5.6 kmh 30.08 in1018.6 mb - 0.00 in0.0 mm 0.00 in0.0 mm
12:15 AM 65.1°F18.4°C 61.5°F16.4°C 88% Calm Calm -- 30.08 in1018.6 mb - 0.00 in0.0 mm 0.00 in0.0 mm
12:10 AM 65.2°F18.4°C 61.6°F16.4°C 88% Calm Calm -- 30.07 in1018.3 mb - 0.00 in0.0 mm 0.00 in0.0 mm
12:00 AM 65.1°F18.4°C 61.5°F16.4°C 88% 2.3 mph N3.7 kmh N 3.5 mph5.6 kmh 30.07 in1018.3 mb - 0.00 in0.0 mm 0.00 in0.0 mm